createdAt,value
2019-01-20T00:04:17.705Z,0.30
2019-01-20T00:09:17.306Z,0.30
2019-01-20T00:14:16.874Z,0.20
2019-01-20T00:19:16.445Z,0.20
2019-01-20T00:24:15.990Z,0.30
2019-01-20T00:29:15.551Z,0.30
2019-01-20T00:34:15.200Z,0.30
2019-01-20T00:39:14.914Z,0.30
2019-01-20T00:44:14.594Z,0.40
2019-01-20T00:49:14.199Z,0.40
2019-01-20T00:54:14.100Z,0.30
2019-01-20T00:59:13.663Z,0.30
2019-01-20T01:04:13.408Z,0.20
2019-01-20T01:09:13.043Z,0.30
2019-01-20T01:14:12.605Z,0.20
2019-01-20T01:19:12.164Z,0.30
2019-01-20T01:24:11.826Z,0.30
2019-01-20T01:29:11.732Z,0.30
2019-01-20T01:34:11.303Z,0.20
2019-01-20T01:39:10.842Z,0.20
2019-01-20T01:44:10.397Z,0.30
2019-01-20T01:49:09.968Z,0.20
2019-01-20T01:54:09.540Z,0.10
2019-01-20T01:59:12.248Z,0.10
2019-01-20T02:04:10.509Z,0.00
2019-01-20T02:09:10.061Z,0.00
2019-01-20T02:14:09.803Z,-0.10
2019-01-20T02:19:09.389Z,-0.20
2019-01-20T02:24:08.938Z,-0.20
2019-01-20T02:29:08.475Z,-0.20
2019-01-20T02:34:08.130Z,-0.10
2019-01-20T02:39:07.886Z,-0.20
2019-01-20T02:44:07.448Z,-0.40
2019-01-20T02:49:06.993Z,-0.40
2019-01-20T02:54:06.556Z,-0.30
2019-01-20T02:59:06.134Z,-0.30
2019-01-20T03:04:05.963Z,-0.30
2019-01-20T03:09:08.870Z,-0.30
2019-01-20T03:14:08.445Z,-0.30
2019-01-20T03:19:08.269Z,-0.30
2019-01-20T03:24:07.902Z,-0.40
2019-01-20T03:29:07.469Z,-0.40
2019-01-20T03:34:07.103Z,-0.40
2019-01-20T03:39:07.358Z,-0.30
2019-01-20T03:44:06.897Z,-0.30
2019-01-20T03:49:06.440Z,-0.30
2019-01-20T03:54:06.159Z,-0.30
2019-01-20T03:59:05.762Z,-0.50
2019-01-20T04:04:05.602Z,-0.70
2019-01-20T04:09:07.840Z,-0.60
2019-01-20T04:14:07.530Z,-0.80
2019-01-20T04:19:07.097Z,-0.80
2019-01-20T04:24:06.714Z,-0.80
2019-01-20T04:29:06.246Z,-0.90
2019-01-20T04:34:05.884Z,-0.80
2019-01-20T04:39:07.447Z,-0.80
2019-01-20T04:44:07.086Z,-0.90
2019-01-20T04:49:06.635Z,-1.00
2019-01-20T04:54:06.700Z,-1.00
2019-01-20T04:59:07.326Z,-0.90
2019-01-20T05:04:06.942Z,-1.00
2019-01-20T05:09:07.701Z,-1.00
2019-01-20T05:14:07.434Z,-0.90
2019-01-20T05:19:07.077Z,-0.80
2019-01-20T05:24:06.692Z,-0.90
2019-01-20T05:29:06.238Z,-0.90
2019-01-20T05:34:05.799Z,-1.00
2019-01-20T05:39:08.013Z,-1.00
2019-01-20T05:44:07.581Z,-1.00
2019-01-20T05:49:07.116Z,-0.90
2019-01-20T05:54:06.730Z,-1.00
2019-01-20T05:59:06.293Z,-1.00
2019-01-20T06:04:05.884Z,-1.00
2019-01-20T06:09:07.688Z,-1.10
2019-01-20T06:14:07.226Z,-1.10
2019-01-20T06:19:06.776Z,-1.10
2019-01-20T06:24:06.435Z,-1.30
2019-01-20T06:29:06.049Z,-1.30
2019-01-20T06:34:05.633Z,-1.30
2019-01-20T06:39:07.933Z,-1.30
2019-01-20T06:44:07.485Z,-1.40
2019-01-20T06:49:07.076Z,-1.40
2019-01-20T06:54:06.633Z,-1.30
2019-01-20T06:59:06.215Z,-1.20
2019-01-20T07:04:05.870Z,-1.20
2019-01-20T07:09:08.092Z,-1.20
2019-01-20T07:14:07.737Z,-1.20
2019-01-20T07:19:07.285Z,-1.30
2019-01-20T07:24:06.847Z,-1.30
2019-01-20T07:29:06.450Z,-1.20
2019-01-20T07:34:06.090Z,-1.20
2019-01-20T07:39:07.787Z,-1.20
2019-01-20T07:44:07.342Z,-1.30
2019-01-20T07:49:06.943Z,-1.30
2019-01-20T07:54:06.577Z,-1.30
2019-01-20T07:59:06.219Z,-1.30
2019-01-20T08:04:05.780Z,-1.30
2019-01-20T08:09:08.073Z,-1.20
2019-01-20T08:14:07.852Z,-1.20
2019-01-20T08:19:07.441Z,-1.00
2019-01-20T08:24:07.006Z,-0.70
2019-01-20T08:29:06.687Z,-0.70
2019-01-20T08:34:06.449Z,-0.60
2019-01-20T08:39:07.772Z,-0.50
2019-01-20T08:44:07.746Z,-0.50
2019-01-20T08:49:07.320Z,-0.50
2019-01-20T08:54:06.885Z,-0.40
2019-01-20T08:59:06.442Z,-0.10
2019-01-20T09:04:05.996Z,0.00
2019-01-20T09:09:07.981Z,0.20
2019-01-20T09:14:07.559Z,0.80
2019-01-20T09:19:07.170Z,0.80
2019-01-20T09:24:06.805Z,0.80
2019-01-20T09:29:06.393Z,0.80
2019-01-20T09:34:05.958Z,1.40
2019-01-20T09:39:12.418Z,2.20
2019-01-20T09:44:12.350Z,2.10
2019-01-20T09:49:11.890Z,2.00
2019-01-20T09:54:11.463Z,2.20
2019-01-20T09:59:11.017Z,2.70
2019-01-20T10:04:10.586Z,2.80
2019-01-20T10:09:10.159Z,3.60
2019-01-20T10:14:09.772Z,3.90
2019-01-20T10:19:09.537Z,4.20
2019-01-20T10:24:09.096Z,4.50
2019-01-20T10:29:08.864Z,5.20
2019-01-20T10:34:08.448Z,5.40
2019-01-20T10:39:11.741Z,4.90
2019-01-20T10:44:11.282Z,5.20
2019-01-20T10:49:10.813Z,5.10
2019-01-20T10:54:10.420Z,5.30
2019-01-20T10:59:11.795Z,7.20
2019-01-20T11:04:11.675Z,8.20
2019-01-20T11:09:11.241Z,7.50
2019-01-20T11:14:10.831Z,7.80
2019-01-20T11:19:10.469Z,8.30
2019-01-20T11:24:11.902Z,9.30
2019-01-20T11:29:11.995Z,9.30
2019-01-20T11:34:12.830Z,9.40
2019-01-20T11:39:13.675Z,10.60
2019-01-20T11:44:17.025Z,12.20
2019-01-20T11:49:14.610Z,14.80
2019-01-20T11:54:14.177Z,16.50
2019-01-20T11:59:13.762Z,15.60
2019-01-20T12:04:14.125Z,15.00
2019-01-20T12:09:13.775Z,15.40
2019-01-20T12:14:13.355Z,14.80
2019-01-20T12:19:12.961Z,12.60
2019-01-20T12:24:12.553Z,11.80
2019-01-20T12:29:12.132Z,12.20
2019-01-20T12:34:11.770Z,12.50
2019-01-20T12:39:11.345Z,12.90
2019-01-20T12:44:10.909Z,13.40
2019-01-20T12:49:10.530Z,14.70
2019-01-20T12:54:10.147Z,15.90
2019-01-20T12:59:10.698Z,16.60
2019-01-20T13:04:10.260Z,14.40
2019-01-20T13:09:10.179Z,14.90
2019-01-20T13:14:09.818Z,15.10
2019-01-20T13:19:09.383Z,15.20
2019-01-20T13:24:08.976Z,15.00
2019-01-20T13:29:08.528Z,12.80
2019-01-20T13:34:08.098Z,11.00
2019-01-20T13:39:11.334Z,10.00
2019-01-20T13:44:10.914Z,9.20
2019-01-20T13:49:10.860Z,8.00
2019-01-20T13:54:10.474Z,6.80
2019-01-20T13:59:10.053Z,5.90
2019-01-20T14:04:09.585Z,5.70
2019-01-20T14:09:09.474Z,5.30
2019-01-20T14:14:09.553Z,5.00
2019-01-20T14:19:11.571Z,4.90
2019-01-20T14:24:11.891Z,4.40
2019-01-20T14:29:11.441Z,4.40
2019-01-20T14:34:11.139Z,4.60
2019-01-20T14:39:12.813Z,5.30
2019-01-20T14:44:12.356Z,5.20
2019-01-20T14:49:11.977Z,4.70
2019-01-20T14:54:11.534Z,4.30
2019-01-20T14:59:11.214Z,4.10
2019-01-20T15:04:14.528Z,3.80
2019-01-20T15:09:14.300Z,3.60
2019-01-20T15:14:17.244Z,3.40
2019-01-20T15:19:16.889Z,3.10
2019-01-20T15:24:16.525Z,2.90
2019-01-20T15:29:16.098Z,2.60
2019-01-20T15:34:15.673Z,2.50
2019-01-20T15:39:15.226Z,2.40
2019-01-20T15:44:14.812Z,2.30
2019-01-20T15:49:14.341Z,2.10
2019-01-20T15:54:13.895Z,2.10
2019-01-20T15:59:14.048Z,2.00
2019-01-20T16:04:13.669Z,2.10
2019-01-20T16:09:14.235Z,2.30
2019-01-20T16:14:14.102Z,2.40
2019-01-20T16:19:13.663Z,2.00
2019-01-20T16:24:13.259Z,1.90
2019-01-20T16:29:12.845Z,1.90
2019-01-20T16:34:12.390Z,1.80
2019-01-20T16:39:12.083Z,1.80
2019-01-20T16:44:11.661Z,1.80
2019-01-20T16:49:11.234Z,1.90
2019-01-20T16:54:10.898Z,1.80
2019-01-20T16:59:10.481Z,1.80
2019-01-20T17:04:10.132Z,1.70
2019-01-20T17:09:10.329Z,1.60
2019-01-20T17:14:09.893Z,1.60
2019-01-20T17:19:09.654Z,1.60
2019-01-20T17:24:09.347Z,1.40
2019-01-20T17:29:08.925Z,1.20
2019-01-20T17:34:08.521Z,1.00
2019-01-20T17:39:12.161Z,1.00
2019-01-20T17:44:11.448Z,1.20
2019-01-20T17:49:11.080Z,1.30
2019-01-20T17:54:10.638Z,1.30
2019-01-20T17:59:10.201Z,1.30
2019-01-20T18:04:09.779Z,1.30
2019-01-20T18:09:11.217Z,1.30
2019-01-20T18:14:10.841Z,1.30
2019-01-20T18:19:10.401Z,1.40
2019-01-20T18:24:10.095Z,1.30
2019-01-20T18:29:09.694Z,1.30
2019-01-20T18:34:09.257Z,1.30
2019-01-20T18:39:09.074Z,1.20
2019-01-20T18:44:09.447Z,1.10
2019-01-20T18:49:09.121Z,1.20
2019-01-20T18:54:08.686Z,1.00
2019-01-20T18:59:08.254Z,1.10
2019-01-20T19:04:07.809Z,1.20
2019-01-20T19:09:09.621Z,1.20
2019-01-20T19:14:09.438Z,1.30
2019-01-20T19:19:09.173Z,1.20
2019-01-20T19:24:08.732Z,1.20
2019-01-20T19:29:08.664Z,1.30
2019-01-20T19:34:08.213Z,1.20
2019-01-20T19:39:09.565Z,1.20
2019-01-20T19:44:09.230Z,1.10
2019-01-20T19:49:08.771Z,1.20
2019-01-20T19:54:08.383Z,1.20
2019-01-20T19:59:08.099Z,1.20
2019-01-20T20:04:10.328Z,1.20
2019-01-20T20:09:13.007Z,1.20
2019-01-20T20:14:12.620Z,1.20
2019-01-20T20:19:12.185Z,1.20
2019-01-20T20:24:11.869Z,1.20
2019-01-20T20:29:11.493Z,1.20
2019-01-20T20:34:11.217Z,1.20
2019-01-20T20:39:10.906Z,1.10
2019-01-20T20:44:11.421Z,1.10
2019-01-20T20:49:11.090Z,1.00
2019-01-20T20:54:10.685Z,1.10
2019-01-20T20:59:10.715Z,1.20
2019-01-20T21:04:10.302Z,1.20
2019-01-20T21:09:10.089Z,1.30
2019-01-20T21:14:09.698Z,1.10
2019-01-20T21:19:09.245Z,1.10
2019-01-20T21:24:08.898Z,1.10
2019-01-20T21:29:08.643Z,1.10
2019-01-20T21:34:08.359Z,1.00
2019-01-20T21:39:09.338Z,0.90
2019-01-20T21:44:09.215Z,1.00
2019-01-20T21:49:08.830Z,0.90
2019-01-20T21:54:08.402Z,0.90
2019-01-20T21:59:07.922Z,0.90
2019-01-20T22:04:07.556Z,0.90
2019-01-20T22:09:08.012Z,1.00
2019-01-20T22:14:08.541Z,1.00
2019-01-20T22:19:08.103Z,1.00
2019-01-20T22:24:07.795Z,0.90
2019-01-20T22:29:07.486Z,0.80
2019-01-20T22:34:07.089Z,0.90
2019-01-20T22:39:08.442Z,0.80
2019-01-20T22:44:27.677Z,0.60
2019-01-20T22:49:28.099Z,0.40
2019-01-20T22:54:28.062Z,0.00
2019-01-20T22:59:27.915Z,-0.10
2019-01-20T23:04:28.185Z,-0.10
2019-01-20T23:09:27.837Z,0.20
2019-01-20T23:14:27.405Z,0.50
2019-01-20T23:20:05.552Z,0.50
2019-01-20T23:25:05.642Z,0.50
2019-01-20T23:30:07.231Z,0.60
2019-01-20T23:35:07.164Z,0.40
2019-01-20T23:40:07.670Z,0.20
2019-01-20T23:45:09.366Z,0.30
2019-01-20T23:50:09.997Z,0.40
2019-01-20T23:55:10.505Z,0.30
